createdAt,value
2022-12-28T00:01:43.485Z,1.92
2022-12-28T00:04:14.489Z,2.22
2022-12-28T00:06:41.299Z,1.83
2022-12-28T00:09:11.196Z,2.08
2022-12-28T00:11:38.167Z,1.77
2022-12-28T00:14:05.327Z,2.10
2022-12-28T00:16:34.822Z,1.98
2022-12-28T00:19:03.498Z,2.00
2022-12-28T00:21:30.614Z,2.45
2022-12-28T00:23:59.459Z,2.33
2022-12-28T00:26:28.023Z,1.75
2022-12-28T00:29:00.061Z,2.35
2022-12-28T00:31:31.298Z,1.67
2022-12-28T00:33:57.904Z,2.30
2022-12-28T00:36:24.870Z,2.63
2022-12-28T00:39:11.474Z,2.13
2022-12-28T00:41:38.058Z,1.92
2022-12-28T00:44:04.907Z,2.45
2022-12-28T00:46:31.487Z,2.40
2022-12-28T00:48:58.182Z,2.65
2022-12-28T00:51:24.815Z,2.40
2022-12-28T00:53:51.473Z,1.92
2022-12-28T00:56:22.367Z,2.20
2022-12-28T00:58:49.879Z,2.60
2022-12-28T01:01:19.433Z,2.20
2022-12-28T01:03:48.037Z,2.22
2022-12-28T01:06:18.769Z,2.05
2022-12-28T01:08:46.289Z,2.20
2022-12-28T01:11:18.587Z,2.25
2022-12-28T01:13:45.704Z,2.40
2022-12-28T01:16:14.739Z,2.20
2022-12-28T01:18:42.681Z,2.55
2022-12-28T01:21:14.672Z,2.03
2022-12-28T01:23:41.733Z,2.10
2022-12-28T01:26:08.495Z,2.17
2022-12-28T01:28:37.255Z,1.80
2022-12-28T01:31:05.635Z,1.95
2022-12-28T01:33:32.401Z,2.28
2022-12-28T01:35:59.443Z,2.03
2022-12-28T01:38:26.214Z,2.10
2022-12-28T01:40:52.720Z,2.03
2022-12-28T01:43:29.357Z,1.83
2022-12-28T01:45:56.742Z,2.28
2022-12-28T01:48:25.466Z,2.05
2022-12-28T01:50:53.727Z,2.15
2022-12-28T01:53:22.086Z,2.03
2022-12-28T01:55:49.255Z,2.25
2022-12-28T01:58:21.586Z,1.98
2022-12-28T02:00:49.625Z,1.92
2022-12-28T02:03:22.877Z,2.60
2022-12-28T02:05:54.087Z,2.20
2022-12-28T02:08:28.364Z,2.22
2022-12-28T02:10:56.157Z,2.40
2022-12-28T02:13:24.837Z,2.30
2022-12-28T02:15:51.533Z,2.10
2022-12-28T02:18:21.039Z,2.20
2022-12-28T02:21:18.090Z,2.05
2022-12-28T02:24:21.665Z,2.17
2022-12-28T02:26:54.814Z,1.90
2022-12-28T02:29:27.347Z,2.40
2022-12-28T02:32:18.660Z,2.38
2022-12-28T02:34:54.461Z,1.92
2022-12-28T02:37:31.876Z,2.08
2022-12-28T02:40:14.140Z,1.90
2022-12-28T02:42:42.817Z,2.30
2022-12-28T02:45:48.323Z,2.50
2022-12-28T02:48:33.560Z,2.60
2022-12-28T02:51:39.700Z,2.22
2022-12-28T02:55:00.203Z,2.60
2022-12-28T02:57:55.284Z,2.30
2022-12-28T03:00:26.214Z,2.55
2022-12-28T03:02:59.631Z,2.70
2022-12-28T03:06:30.548Z,2.45
2022-12-28T03:09:30.850Z,2.60
2022-12-28T03:12:26.630Z,2.35
2022-12-28T03:15:06.551Z,2.97
2022-12-28T03:17:56.187Z,2.33
2022-12-28T03:20:44.931Z,2.33
2022-12-28T03:23:35.284Z,2.30
2022-12-28T03:26:24.054Z,2.35
2022-12-28T03:29:09.573Z,2.78
2022-12-28T03:31:37.475Z,3.17
2022-12-28T03:34:08.534Z,2.40
2022-12-28T03:37:05.007Z,2.47
2022-12-28T03:39:48.047Z,2.15
2022-12-28T03:42:59.591Z,3.05
2022-12-28T03:45:45.882Z,2.90
2022-12-28T03:48:15.787Z,2.70
2022-12-28T03:50:45.452Z,2.65
2022-12-28T03:53:12.092Z,2.92
2022-12-28T03:55:39.909Z,3.17
2022-12-28T03:58:06.810Z,2.88
2022-12-28T04:00:34.082Z,2.97
2022-12-28T04:03:00.997Z,2.83
2022-12-28T04:05:27.738Z,2.60
2022-12-28T04:07:54.351Z,2.63
2022-12-28T04:10:21.033Z,3.17
2022-12-28T04:12:47.628Z,2.83
2022-12-28T04:15:14.394Z,2.80
2022-12-28T04:17:41.121Z,2.80
2022-12-28T04:20:08.303Z,3.03
2022-12-28T04:22:35.009Z,3.10
2022-12-28T04:25:01.768Z,2.63
2022-12-28T04:27:28.423Z,2.42
2022-12-28T04:29:55.501Z,2.70
2022-12-28T04:32:23.417Z,2.50
2022-12-28T04:34:50.002Z,2.83
2022-12-28T04:37:18.863Z,2.70
2022-12-28T04:39:54.962Z,2.85
2022-12-28T04:42:25.873Z,2.67
2022-12-28T04:44:52.815Z,3.28
2022-12-28T04:47:19.605Z,2.78
2022-12-28T04:49:46.366Z,3.08
2022-12-28T04:52:13.143Z,3.00
2022-12-28T04:54:39.898Z,2.63
2022-12-28T04:57:06.925Z,3.33
2022-12-28T04:59:33.588Z,2.70
2022-12-28T05:02:00.440Z,3.00
2022-12-28T05:04:27.333Z,2.83
2022-12-28T05:06:53.903Z,2.78
2022-12-28T05:09:21.528Z,2.58
2022-12-28T05:11:48.417Z,3.47
2022-12-28T05:14:15.178Z,2.97
2022-12-28T05:16:42.016Z,3.40
2022-12-28T05:19:08.733Z,4.45
2022-12-28T05:21:35.451Z,3.22
2022-12-28T05:24:02.246Z,3.53
2022-12-28T05:26:29.846Z,2.85
2022-12-28T05:28:58.748Z,3.13
2022-12-28T05:31:25.778Z,3.17
2022-12-28T05:33:53.147Z,3.38
2022-12-28T05:36:22.525Z,3.17
2022-12-28T05:38:49.629Z,4.28
2022-12-28T05:41:21.978Z,3.03
2022-12-28T05:43:49.116Z,2.92
2022-12-28T05:46:25.513Z,4.22
2022-12-28T05:48:55.119Z,3.55
2022-12-28T05:51:26.143Z,3.40
2022-12-28T05:53:52.727Z,3.70
2022-12-28T05:56:24.521Z,3.55
2022-12-28T05:59:06.180Z,3.70
2022-12-28T06:01:36.865Z,4.25
2022-12-28T06:04:09.097Z,3.47
2022-12-28T06:06:36.323Z,2.90
2022-12-28T06:09:03.499Z,3.00
2022-12-28T06:11:30.374Z,3.10
2022-12-28T06:13:59.175Z,2.92
2022-12-28T06:16:31.487Z,3.17
2022-12-28T06:18:58.906Z,2.72
2022-12-28T06:21:27.834Z,2.83
2022-12-28T06:23:57.932Z,3.20
2022-12-28T06:26:25.872Z,2.95
2022-12-28T06:28:52.687Z,2.45
2022-12-28T06:31:25.062Z,3.83
2022-12-28T06:33:55.110Z,3.10
2022-12-28T06:36:24.407Z,3.40
2022-12-28T06:38:52.306Z,3.50
2022-12-28T06:41:20.512Z,2.30
2022-12-28T06:43:48.109Z,2.63
2022-12-28T06:46:16.672Z,2.88
2022-12-28T06:48:43.867Z,3.33
2022-12-28T06:51:40.635Z,3.47
2022-12-28T06:54:08.138Z,3.27
2022-12-28T06:56:36.336Z,2.58
2022-12-28T06:59:04.262Z,2.80
2022-12-28T07:01:37.006Z,3.03
2022-12-28T07:04:05.648Z,2.45
2022-12-28T07:06:36.500Z,2.80
2022-12-28T07:09:05.567Z,2.63
2022-12-28T07:11:32.317Z,2.75
2022-12-28T07:13:59.307Z,3.13
2022-12-28T07:18:54.683Z,2.83
2022-12-28T07:21:24.758Z,2.72
2022-12-28T07:23:53.646Z,2.92
2022-12-28T07:26:23.277Z,2.35
2022-12-28T07:28:52.596Z,3.17
2022-12-28T07:31:21.948Z,2.25
2022-12-28T07:33:49.848Z,2.50
2022-12-28T07:36:18.365Z,2.25
2022-12-28T07:38:45.760Z,2.35
2022-12-28T07:41:18.468Z,2.13
2022-12-28T07:43:45.512Z,2.13
2022-12-28T07:46:14.457Z,2.60
2022-12-28T07:48:42.980Z,2.30
2022-12-28T07:51:10.799Z,2.20
2022-12-28T07:53:38.431Z,2.85
2022-12-28T07:56:05.879Z,1.98
2022-12-28T07:58:33.152Z,2.50
2022-12-28T08:01:08.871Z,2.10
2022-12-28T08:03:36.257Z,2.58
2022-12-28T08:06:15.688Z,2.17
2022-12-28T08:08:44.610Z,2.38
2022-12-28T08:11:14.421Z,1.98
2022-12-28T08:13:42.975Z,2.30
2022-12-28T08:16:15.397Z,2.60
2022-12-28T08:18:42.790Z,2.50
2022-12-28T08:21:19.934Z,2.42
2022-12-28T08:23:47.513Z,1.88
2022-12-28T08:26:22.607Z,2.30
2022-12-28T08:28:51.451Z,2.20
2022-12-28T08:31:20.852Z,3.00
2022-12-28T08:33:48.223Z,2.55
2022-12-28T08:36:15.534Z,2.70
2022-12-28T08:38:43.714Z,2.50
2022-12-28T08:41:17.027Z,2.92
2022-12-28T08:43:44.599Z,2.58
2022-12-28T08:46:17.170Z,2.55
2022-12-28T08:48:45.544Z,2.70
2022-12-28T08:51:17.696Z,2.97
2022-12-28T08:53:46.567Z,2.90
2022-12-28T08:56:19.657Z,3.20
2022-12-28T08:58:47.268Z,3.30
2022-12-28T09:01:26.353Z,3.20
2022-12-28T09:03:55.203Z,2.90
2022-12-28T09:06:28.320Z,3.50
2022-12-28T09:09:06.654Z,3.00
2022-12-28T09:11:38.910Z,3.35
2022-12-28T09:14:08.038Z,2.90
2022-12-28T09:16:35.557Z,2.90
2022-12-28T09:19:04.668Z,3.92
2022-12-28T09:21:34.870Z,3.13
2022-12-28T09:24:02.032Z,3.28
2022-12-28T09:26:31.850Z,2.80
2022-12-28T09:29:01.985Z,2.50
2022-12-28T09:31:31.135Z,2.95
2022-12-28T09:36:47.971Z,3.00
2022-12-28T09:39:20.874Z,2.45
2022-12-28T09:41:56.022Z,2.42
2022-12-28T09:44:59.737Z,2.47
2022-12-28T09:47:38.725Z,2.50
2022-12-28T09:50:18.577Z,3.03
2022-12-28T09:53:03.787Z,3.38
2022-12-28T09:55:35.274Z,3.00
2022-12-28T09:58:04.525Z,2.72
2022-12-28T10:00:38.743Z,3.55
2022-12-28T10:03:38.618Z,3.10
2022-12-28T10:06:17.516Z,2.78
2022-12-28T10:08:48.855Z,2.63
2022-12-28T10:11:22.636Z,2.10
2022-12-28T10:14:01.466Z,2.42
2022-12-28T10:16:34.503Z,2.10
2022-12-28T10:19:01.302Z,2.78
2022-12-28T10:21:33.410Z,3.00
2022-12-28T10:26:49.313Z,2.22
2022-12-28T10:29:26.747Z,2.63
2022-12-28T10:32:09.542Z,2.45
2022-12-28T10:34:37.194Z,2.90
2022-12-28T10:37:15.477Z,2.00
2022-12-28T10:40:05.380Z,2.28
2022-12-28T10:42:42.737Z,1.63
2022-12-28T10:45:36.610Z,1.70
2022-12-28T10:48:12.546Z,1.92
2022-12-28T10:50:54.534Z,1.80
2022-12-28T10:53:30.385Z,1.80
2022-12-28T10:56:06.387Z,2.00
2022-12-28T10:58:34.373Z,2.47
2022-12-28T11:01:28.578Z,2.05
2022-12-28T11:03:55.345Z,2.50
2022-12-28T11:06:55.626Z,2.25
2022-12-28T11:09:30.508Z,2.30
2022-12-28T11:12:17.776Z,2.50
2022-12-28T11:17:26.197Z,2.00
2022-12-28T11:19:57.944Z,2.10
2022-12-28T11:22:28.003Z,1.95
2022-12-28T11:24:57.677Z,1.80
2022-12-28T11:27:24.832Z,2.00
2022-12-28T11:29:55.694Z,1.90
2022-12-28T11:32:30.409Z,1.90
2022-12-28T11:34:58.116Z,2.20
2022-12-28T11:37:25.097Z,2.35
2022-12-28T11:39:53.487Z,2.10
2022-12-28T11:42:40.771Z,2.38
2022-12-28T11:45:46.063Z,2.70
2022-12-28T11:48:43.628Z,2.10
2022-12-28T11:51:19.469Z,2.28
2022-12-28T11:53:46.119Z,2.27
2022-12-28T11:56:14.917Z,2.15
2022-12-28T11:58:41.530Z,1.90
2022-12-28T12:01:29.617Z,1.83
2022-12-28T12:03:59.314Z,2.00
2022-12-28T12:06:44.876Z,2.30
2022-12-28T12:09:29.465Z,2.30
2022-12-28T12:11:59.193Z,3.00
2022-12-28T12:14:38.468Z,2.50
2022-12-28T12:17:07.846Z,2.35
2022-12-28T12:19:42.120Z,1.88
2022-12-28T12:22:14.739Z,1.85
2022-12-28T12:24:55.074Z,1.83
2022-12-28T12:27:33.914Z,2.25
2022-12-28T12:30:06.776Z,1.92
2022-12-28T12:32:51.919Z,2.10
2022-12-28T12:35:23.503Z,1.90
2022-12-28T12:38:19.523Z,2.00
2022-12-28T12:41:16.436Z,2.10
2022-12-28T12:43:59.416Z,2.30
2022-12-28T12:47:05.586Z,1.60
2022-12-28T12:49:47.203Z,2.40
2022-12-28T12:52:58.911Z,2.05
2022-12-28T12:55:50.255Z,2.03
2022-12-28T12:58:19.520Z,1.70
2022-12-28T13:01:19.678Z,1.65
2022-12-28T13:03:52.307Z,1.85
2022-12-28T13:06:29.000Z,1.85
2022-12-28T13:09:05.699Z,1.88
2022-12-28T13:11:37.651Z,1.70
2022-12-28T13:14:05.558Z,2.00
2022-12-28T13:16:33.023Z,1.90
2022-12-28T13:19:06.563Z,1.70
2022-12-28T13:21:50.548Z,1.85
2022-12-28T13:24:25.985Z,1.42
2022-12-28T13:26:53.581Z,1.80
2022-12-28T13:29:26.739Z,1.60
2022-12-28T13:31:54.633Z,1.75
2022-12-28T13:34:26.570Z,1.58
2022-12-28T13:36:58.042Z,1.85
2022-12-28T13:39:41.589Z,2.00
2022-12-28T13:42:41.128Z,2.08
2022-12-28T13:45:10.753Z,2.03
2022-12-28T13:47:42.848Z,2.33
2022-12-28T13:50:26.576Z,2.33
2022-12-28T13:53:03.903Z,2.45
2022-12-28T13:55:58.591Z,2.10
2022-12-28T13:58:56.498Z,2.70
2022-12-28T14:04:25.657Z,1.90
2022-12-28T14:06:48.009Z,1.48
2022-12-28T14:09:15.941Z,2.05
2022-12-28T14:14:36.249Z,1.80
2022-12-28T14:17:03.587Z,2.15
2022-12-28T14:19:30.657Z,2.00
2022-12-28T14:21:57.311Z,2.00
2022-12-28T14:24:24.938Z,2.00
2022-12-28T14:26:57.947Z,2.38
2022-12-28T14:29:31.065Z,2.33
2022-12-28T14:31:59.399Z,2.00
2022-12-28T14:34:33.421Z,2.60
2022-12-28T14:37:00.271Z,1.85
2022-12-28T14:39:45.368Z,2.00
2022-12-28T14:42:24.692Z,2.00
2022-12-28T14:44:56.248Z,1.80
2022-12-28T14:47:47.255Z,1.60
2022-12-28T14:50:23.246Z,1.75
2022-12-28T14:52:51.447Z,1.65
2022-12-28T14:55:22.694Z,1.83
2022-12-28T14:57:55.695Z,1.88
2022-12-28T15:00:31.276Z,1.60
2022-12-28T15:06:03.943Z,2.03
2022-12-28T15:08:30.525Z,1.55
2022-12-28T15:11:01.275Z,1.85
2022-12-28T15:13:27.894Z,1.70
2022-12-28T15:15:55.846Z,1.75
2022-12-28T15:18:23.113Z,1.45
2022-12-28T15:20:50.473Z,1.63
2022-12-28T15:23:17.484Z,1.55
2022-12-28T15:25:44.167Z,2.80
2022-12-28T15:28:29.602Z,1.50
2022-12-28T15:30:56.474Z,1.63
2022-12-28T15:33:24.305Z,2.92
2022-12-28T15:35:50.936Z,1.73
2022-12-28T15:38:17.572Z,1.90
2022-12-28T15:40:44.219Z,1.77
2022-12-28T15:43:10.992Z,1.52
2022-12-28T15:45:37.716Z,1.52
2022-12-28T15:48:05.202Z,1.63
2022-12-28T15:50:32.320Z,1.27
2022-12-28T15:52:59.996Z,1.33
2022-12-28T15:55:26.653Z,1.50
2022-12-28T15:57:53.370Z,0.93
2022-12-28T16:00:20.584Z,1.63
2022-12-28T16:02:47.485Z,1.45
2022-12-28T16:05:14.706Z,1.50
2022-12-28T16:07:41.407Z,1.73
2022-12-28T16:10:08.396Z,1.55
2022-12-28T16:12:35.390Z,1.70
2022-12-28T16:15:02.102Z,1.67
2022-12-28T16:17:55.311Z,1.65
2022-12-28T16:20:24.003Z,1.30
2022-12-28T16:22:53.799Z,1.45
2022-12-28T16:25:20.472Z,1.60
2022-12-28T16:27:47.851Z,1.88
2022-12-28T16:30:14.874Z,1.45
2022-12-28T16:32:41.505Z,1.73
2022-12-28T16:35:08.711Z,1.42
2022-12-28T16:37:37.557Z,1.65
2022-12-28T16:40:04.750Z,1.70
2022-12-28T16:42:32.215Z,1.50
2022-12-28T16:44:58.792Z,1.83
2022-12-28T16:47:25.540Z,1.85
2022-12-28T16:49:52.175Z,1.45
2022-12-28T16:52:18.772Z,1.90
2022-12-28T16:54:45.378Z,2.00
2022-12-28T16:57:13.248Z,1.60
2022-12-28T16:59:39.835Z,1.95
2022-12-28T17:02:08.690Z,1.63
2022-12-28T17:04:35.565Z,1.50
2022-12-28T17:07:02.996Z,1.92
2022-12-28T17:09:29.703Z,1.95
2022-12-28T17:12:14.919Z,1.67
2022-12-28T17:14:41.973Z,1.75
2022-12-28T17:17:08.928Z,1.95
2022-12-28T17:19:35.871Z,1.50
2022-12-28T17:22:04.163Z,1.83
2022-12-28T17:24:30.813Z,1.70
2022-12-28T17:27:03.447Z,1.92
2022-12-28T17:29:33.694Z,1.98
2022-12-28T17:32:00.516Z,1.77
2022-12-28T17:34:28.950Z,1.65
2022-12-28T17:36:55.569Z,1.85
2022-12-28T17:39:22.501Z,1.70
2022-12-28T17:41:49.337Z,2.10
2022-12-28T17:44:16.122Z,1.65
2022-12-28T17:46:42.691Z,2.10
2022-12-28T17:49:13.234Z,1.70
2022-12-28T17:51:44.511Z,2.00
2022-12-28T17:54:11.888Z,1.60
2022-12-28T17:56:39.607Z,2.15
2022-12-28T17:59:06.728Z,1.60
2022-12-28T18:01:33.719Z,1.90
2022-12-28T18:04:02.830Z,2.00
2022-12-28T18:06:29.576Z,1.83
2022-12-28T18:08:56.212Z,2.03
2022-12-28T18:11:23.124Z,2.03
2022-12-28T18:13:49.692Z,2.00
2022-12-28T18:16:19.823Z,2.20
2022-12-28T18:18:47.022Z,2.17
2022-12-28T18:21:21.465Z,2.50
2022-12-28T18:23:51.139Z,2.30
2022-12-28T18:26:26.473Z,2.30
2022-12-28T18:28:54.573Z,1.90
2022-12-28T18:31:22.229Z,2.17
2022-12-28T18:33:49.142Z,2.05
2022-12-28T18:36:18.021Z,2.38
2022-12-28T18:38:45.794Z,2.15
2022-12-28T18:41:14.520Z,2.22
2022-12-28T18:43:41.658Z,1.80
2022-12-28T18:46:09.065Z,2.00
2022-12-28T18:48:38.618Z,1.90
2022-12-28T18:51:09.632Z,2.30
2022-12-28T18:53:40.274Z,2.38
2022-12-28T18:56:10.119Z,2.20
2022-12-28T18:58:39.677Z,2.20
2022-12-28T19:01:32.486Z,2.00
2022-12-28T19:04:00.985Z,1.92
2022-12-28T19:06:28.021Z,1.73
2022-12-28T19:08:59.758Z,3.17
2022-12-28T19:11:27.050Z,2.00
2022-12-28T19:13:53.649Z,1.80
2022-12-28T19:16:27.160Z,2.10
2022-12-28T19:18:58.026Z,1.80
2022-12-28T19:21:25.513Z,2.05
2022-12-28T19:23:54.192Z,2.00
2022-12-28T19:26:21.715Z,2.10
2022-12-28T19:28:50.138Z,1.98
2022-12-28T19:31:16.773Z,2.03
2022-12-28T19:33:43.487Z,1.98
2022-12-28T19:36:11.005Z,1.70
2022-12-28T19:38:37.902Z,1.80
2022-12-28T19:41:07.017Z,1.70
2022-12-28T19:43:33.711Z,2.03
2022-12-28T19:46:31.574Z,2.00
2022-12-28T19:49:01.487Z,1.90
2022-12-28T19:51:32.445Z,2.08
2022-12-28T19:54:00.650Z,1.90
2022-12-28T19:56:27.457Z,1.85
2022-12-28T19:58:59.470Z,2.17
2022-12-28T20:01:28.871Z,1.63
2022-12-28T20:03:56.474Z,2.15
2022-12-28T20:06:28.730Z,1.98
2022-12-28T20:09:00.208Z,1.60
2022-12-28T20:11:28.617Z,1.83
2022-12-28T20:13:57.822Z,2.30
2022-12-28T20:16:26.768Z,2.42
2022-12-28T20:18:54.919Z,2.40
2022-12-28T20:21:23.779Z,2.03
2022-12-28T20:23:52.015Z,2.08
2022-12-28T20:26:20.960Z,2.17
2022-12-28T20:28:49.445Z,2.65
2022-12-28T20:31:16.911Z,2.10
2022-12-28T20:33:44.160Z,2.22
2022-12-28T20:36:22.814Z,2.20
2022-12-28T20:38:50.721Z,2.50
2022-12-28T20:41:38.861Z,2.30
2022-12-28T20:44:11.938Z,1.92
2022-12-28T20:46:39.168Z,2.20
2022-12-28T20:49:06.378Z,2.28
2022-12-28T20:51:53.045Z,2.28
2022-12-28T20:54:20.551Z,2.45
2022-12-28T20:56:53.975Z,2.50
2022-12-28T20:59:22.072Z,2.17
2022-12-28T21:01:48.887Z,2.40
2022-12-28T21:04:15.642Z,2.50
2022-12-28T21:06:42.563Z,2.50
2022-12-28T21:09:09.157Z,2.40
2022-12-28T21:11:35.852Z,2.38
2022-12-28T21:14:02.902Z,2.78
2022-12-28T21:16:30.682Z,2.28
2022-12-28T21:18:57.432Z,2.17
2022-12-28T21:21:25.129Z,2.28
2022-12-28T21:23:54.834Z,2.40
2022-12-28T21:26:23.297Z,2.13
2022-12-28T21:28:50.275Z,2.42
2022-12-28T21:31:17.070Z,2.60
2022-12-28T21:33:43.731Z,2.78
2022-12-28T21:36:16.745Z,2.50
2022-12-28T21:38:45.499Z,2.70
2022-12-28T21:41:15.031Z,1.83
2022-12-28T21:43:42.183Z,2.20
2022-12-28T21:46:13.898Z,2.30
2022-12-28T21:48:41.102Z,2.30
2022-12-28T21:51:31.460Z,1.90
2022-12-28T21:54:05.713Z,2.00
2022-12-28T21:56:34.530Z,2.10
2022-12-28T21:59:01.748Z,2.30
2022-12-28T22:01:47.342Z,2.58
2022-12-28T22:04:36.627Z,2.47
2022-12-28T22:07:04.344Z,2.13
2022-12-28T22:09:49.791Z,2.40
2022-12-28T22:12:35.037Z,2.50
2022-12-28T22:15:24.693Z,2.63
2022-12-28T22:17:58.494Z,2.00
2022-12-28T22:20:26.293Z,2.20
2022-12-28T22:22:56.288Z,2.05
2022-12-28T22:25:23.389Z,2.10
2022-12-28T22:27:51.246Z,2.20
2022-12-28T22:30:17.850Z,2.08
2022-12-28T22:32:44.576Z,2.20
2022-12-28T22:35:11.303Z,2.33
2022-12-28T22:37:38.220Z,2.15
2022-12-28T22:40:06.005Z,2.60
2022-12-28T22:42:32.721Z,2.03
2022-12-28T22:44:59.341Z,2.00
2022-12-28T22:47:28.176Z,2.38
2022-12-28T22:49:55.025Z,2.35
2022-12-28T22:52:21.908Z,2.33
2022-12-28T22:54:48.573Z,2.22
2022-12-28T22:57:16.242Z,2.30
2022-12-28T22:59:42.835Z,2.10
2022-12-28T23:02:09.534Z,2.33
2022-12-28T23:04:36.249Z,2.10
2022-12-28T23:07:04.135Z,2.20
2022-12-28T23:09:32.601Z,2.10
2022-12-28T23:11:59.376Z,2.42
2022-12-28T23:14:44.713Z,2.10
2022-12-28T23:17:14.474Z,2.10
2022-12-28T23:20:01.484Z,2.30
2022-12-28T23:22:50.383Z,2.10
2022-12-28T23:25:38.584Z,2.20
2022-12-28T23:28:11.939Z,2.10
2022-12-28T23:30:41.099Z,1.67
2022-12-28T23:33:07.752Z,1.80
2022-12-28T23:35:34.745Z,1.80
2022-12-28T23:38:01.535Z,2.47
2022-12-28T23:40:28.384Z,2.22
2022-12-28T23:42:55.274Z,1.80
2022-12-28T23:45:22.292Z,2.55
2022-12-28T23:47:51.843Z,2.03
2022-12-28T23:50:19.505Z,1.80
2022-12-28T23:52:46.576Z,2.03
2022-12-28T23:55:13.257Z,1.85
2022-12-28T23:57:40.059Z,1.95
